Fairbank, Pennsylvania
Current Conditions -  °F | °C
As of 9:25 PM on Sunday 25 Jan 2015 (Local Time) from KMGW Reporting Station
Haze Haze  
Wind Chill: 31°   Ceiling: 8000
Heat Index: 35°   Visibility: 1.7mi
Dew Point: 31°   Wind: 5mph
Humidity: 85%   Direction: 360°N
Pressure: 29.75"   Gusts: NA
Location:  39.94°N, 79.85°W
Report Text: KMGW 260225Z 36004KT 1 3/4SM BR OVC080 02/M01 A2975 RMK AO2 T00171006
Loading
Personal Weather Stations






























Interactive Weather Map New forecast layout! Learn more

10-Day Weather Forecast

Advertisements
Track Severe Weather on mobile